Time;durP1;ratioP1;P1;durP2;ratioP2;P2;SDS_P1;SDS_P2;PMS_P1;PMS_P2;Temp;Humidity;BMP_temperature;BMP_pressure;BME280_temperature;BME280_humidity;BME280_pressure;Samples;Min_cycle;Max_cycle;Signal;HPM_P1;HPM_P2
2023/12/17 00:00:39;;;;;;;5.87;3.43;;;;;;;4.66;77.03;97505.84;5094087;28;20200;-86
2023/12/17 00:03:06;;;;;;;4.13;3.10;;;;;;;4.65;77.06;97482.97;5092515;28;20207;-87
2023/12/17 00:05:32;;;;;;;6.33;2.80;;;;;;;4.63;76.64;97472.84;5094187;28;20652;-85
2023/12/17 00:08:00;;;;;;;3.83;3.10;;;;;;;4.60;76.97;97480.72;5109577;28;20576;-86
2023/12/17 00:10:26;;;;;;;3.53;3.17;;;;;;;4.59;76.61;97486.72;5090994;28;20260;-86
2023/12/17 00:12:54;;;;;;;4.33;3.50;;;;;;;4.58;76.50;97482.53;5085398;28;20207;-86
2023/12/17 00:15:22;;;;;;;5.13;3.20;;;;;;;4.60;76.70;97502.84;5072704;28;20207;-86
2023/12/17 00:17:49;;;;;;;10.57;3.20;;;;;;;4.66;76.41;97499.91;5077815;28;20208;-85
2023/12/17 00:20:15;;;;;;;3.87;3.07;;;;;;;4.67;76.30;97494.72;5092345;28;20228;-86
2023/12/17 00:22:42;;;;;;;3.83;3.23;;;;;;;4.64;76.53;97496.63;5092290;28;20291;-86
2023/12/17 00:25:10;;;;;;;3.97;3.53;;;;;;;4.66;76.17;97487.97;5092135;28;20223;-85
2023/12/17 00:27:38;;;;;;;7.67;4.80;;;;;;;4.62;76.32;97498.50;5092424;28;20206;-86
2023/12/17 00:30:07;;;;;;;8.57;6.70;;;;;;;4.62;76.28;97501.03;5091350;28;20220;-87
2023/12/17 00:32:34;;;;;;;12.80;7.63;;;;;;;4.59;76.04;97479.09;5091757;28;20200;-85
2023/12/17 00:35:00;;;;;;;9.97;7.77;;;;;;;4.62;76.24;97480.63;5090901;28;20207;-85
2023/12/17 00:37:33;;;;;;;9.10;6.83;;;;;;;4.61;76.30;97482.34;5091905;28;20204;-86
2023/12/17 00:39:59;;;;;;;7.43;5.13;;;;;;;4.60;75.58;97467.97;5092085;28;20307;-86
2023/12/17 00:42:27;;;;;;;6.80;5.30;;;;;;;4.49;76.12;97467.78;5092081;28;20204;-87
2023/12/17 00:44:56;;;;;;;6.77;4.57;;;;;;;4.51;76.42;97488.91;5092608;28;20228;-86
2023/12/17 00:47:23;;;;;;;6.13;3.90;;;;;;;4.55;76.67;97487.81;5091656;28;20208;-87
2023/12/17 00:49:49;;;;;;;3.70;3.30;;;;;;;4.51;75.96;97463.41;5083169;28;20717;-85
2023/12/17 00:52:19;;;;;;;4.03;3.40;;;;;;;4.53;75.93;97474.34;5091676;28;20204;-86
2023/12/17 00:54:46;;;;;;;3.90;3.50;;;;;;;4.47;76.43;97485.72;5092276;28;20231;-87
2023/12/17 00:57:15;;;;;;;5.07;3.53;;;;;;;4.46;76.62;97489.19;5091450;28;20294;-86
2023/12/17 00:59:42;;;;;;;4.17;3.57;;;;;;;4.40;76.54;97492.13;5091298;28;20212;-87
2023/12/17 01:02:09;;;;;;;5.17;3.30;;;;;;;4.36;76.97;97494.94;5092441;28;20207;-86
2023/12/17 01:04:35;;;;;;;4.53;3.60;;;;;;;4.41;76.83;97521.00;5093698;28;20203;-85
2023/12/17 01:07:02;;;;;;;3.70;3.40;;;;;;;4.42;76.79;97520.09;5096180;28;20230;-85
2023/12/17 01:09:28;;;;;;;4.00;3.30;;;;;;;4.46;77.08;97506.22;5083300;28;20758;-86
2023/12/17 01:11:57;;;;;;;3.97;3.00;;;;;;;4.46;76.79;97504.47;5070536;28;20205;-85
2023/12/17 01:14:25;;;;;;;3.77;3.10;;;;;;;4.41;76.82;97505.69;5070559;28;20268;-86
2023/12/17 01:16:53;;;;;;;4.10;3.27;;;;;;;4.37;76.35;97514.44;5070566;28;20204;-85
2023/12/17 01:19:20;;;;;;;2.80;2.60;;;;;;;4.36;76.64;97536.56;5070158;28;20224;-85
2023/12/17 01:21:46;;;;;;;2.73;2.53;;;;;;;4.37;76.83;97528.00;5071494;28;20201;-87
2023/12/17 01:24:12;;;;;;;3.53;3.00;;;;;;;4.38;76.52;97528.81;5079235;28;20863;-86
2023/12/17 01:26:39;;;;;;;2.80;2.60;;;;;;;4.30;76.29;97523.34;5080772;28;20216;-85
2023/12/17 01:29:12;;;;;;;3.73;2.93;;;;;;;4.21;76.56;97542.56;5111655;22;20310;-85
2023/12/17 01:31:39;;;;;;;3.07;2.77;;;;;;;4.24;77.11;97552.56;5100330;28;20204;-85
2023/12/17 01:34:20;;;;;;;3.60;2.80;;;;;;;4.22;76.89;97551.03;5099274;28;20243;-85
2023/12/17 01:36:55;;;;;;;3.30;2.90;;;;;;;4.20;76.70;97552.84;5105584;28;20184;-86
2023/12/17 01:39:22;;;;;;;3.50;3.10;;;;;;;4.14;77.29;97567.56;5106195;28;20223;-86
2023/12/17 01:41:49;;;;;;;3.90;3.33;;;;;;;4.07;77.76;97565.44;5101639;28;20218;-85
2023/12/17 01:44:24;;;;;;;3.83;3.30;;;;;;;4.07;78.02;97570.53;5100446;28;20197;-83
2023/12/17 01:46:56;;;;;;;4.20;3.40;;;;;;;4.07;78.22;97576.47;5101727;28;20275;-86
2023/12/17 01:49:47;;;;;;;4.00;3.60;;;;;;;4.04;78.04;97591.94;5101544;28;20238;-85
2023/12/17 01:52:18;;;;;;;3.77;3.37;;;;;;;4.13;78.25;97591.44;5099212;28;20192;-88
2023/12/17 01:55:25;;;;;;;;;;;;;;;;;;;;;
2023/12/17 01:58:29;;;;;;;3.57;3.07;;;;;;;4.01;78.17;97592.13;5078782;28;20210;-86
2023/12/17 02:01:07;;;;;;;4.07;3.37;;;;;;;4.04;77.76;97584.28;5103465;28;20322;-87
2023/12/17 02:03:34;;;;;;;5.07;3.50;;;;;;;4.03;78.40;97592.03;5092457;28;20497;-86
2023/12/17 02:06:02;;;;;;;3.50;3.20;;;;;;;3.98;78.37;97605.03;5082608;28;20570;-85
2023/12/17 02:08:28;;;;;;;3.43;3.07;;;;;;;4.01;77.99;97620.16;5073342;28;20902;-86
2023/12/17 02:10:55;;;;;;;4.97;3.20;;;;;;;4.07;78.08;97616.44;5081070;28;20204;-87
2023/12/17 02:13:21;;;;;;;3.50;3.20;;;;;;;4.05;78.22;97619.06;5094203;28;20208;-85
2023/12/17 02:15:47;;;;;;;4.60;3.20;;;;;;;4.08;77.70;97612.97;5093918;28;20192;-86
2023/12/17 02:18:14;;;;;;;3.80;3.40;;;;;;;4.06;77.62;97599.50;5093610;28;20204;-86
2023/12/17 02:20:43;;;;;;;3.63;3.20;;;;;;;4.02;77.76;97592.94;5093350;28;20215;-86
2023/12/17 02:23:11;;;;;;;3.83;3.43;;;;;;;3.89;78.11;97600.44;5085548;28;20262;-85
2023/12/17 02:25:38;;;;;;;3.67;3.13;;;;;;;3.89;78.54;97607.28;5084862;28;20226;-86
2023/12/17 02:28:04;;;;;;;3.83;3.50;;;;;;;3.91;78.36;97618.19;5093221;28;20204;-89
2023/12/17 02:30:33;;;;;;;4.27;3.70;;;;;;;3.89;78.27;97612.38;5093999;28;20216;-86
2023/12/17 02:33:00;;;;;;;4.20;3.80;;;;;;;3.87;78.05;97614.19;5093460;28;20200;-86
2023/12/17 02:35:26;;;;;;;4.77;4.03;;;;;;;3.88;77.92;97601.34;5093172;28;20207;-85
2023/12/17 02:37:53;;;;;;;3.93;3.47;;;;;;;3.84;77.79;97599.91;5092898;28;20203;-85
2023/12/17 02:40:20;;;;;;;3.60;3.20;;;;;;;3.78;78.10;97602.78;5093249;28;20232;-86
2023/12/17 02:42:47;;;;;;;4.70;3.70;;;;;;;3.83;77.97;97600.81;5092770;28;20219;-85
2023/12/17 02:45:14;;;;;;;4.03;3.63;;;;;;;3.81;77.92;97584.78;5093868;28;20819;-86
2023/12/17 02:47:40;;;;;;;6.07;3.90;;;;;;;3.83;78.14;97595.72;5092944;28;20329;-85
2023/12/17 02:50:07;;;;;;;3.73;3.40;;;;;;;3.86;78.15;97592.16;5092130;28;20920;-86
2023/12/17 02:52:34;;;;;;;4.23;3.50;;;;;;;3.84;78.49;97584.63;5093195;28;20191;-85
2023/12/17 02:55:00;;;;;;;5.10;3.47;;;;;;;3.83;78.67;97588.06;5093482;28;20196;-86
2023/12/17 02:57:29;;;;;;;4.93;3.50;;;;;;;3.87;78.54;97589.50;5092745;28;20196;-86
2023/12/17 02:59:56;;;;;;;4.87;3.80;;;;;;;3.86;78.10;97582.78;5089834;28;20696;-86
2023/12/17 03:02:22;;;;;;;3.60;3.17;;;;;;;3.88;78.26;97572.50;5088457;28;20207;-86
2023/12/17 03:04:54;;;;;;;4.03;3.63;;;;;;;3.93;77.82;97578.16;5092703;28;20204;-86
2023/12/17 03:07:21;;;;;;;3.47;3.10;;;;;;;3.88;78.08;97560.56;5093155;28;20204;-86
2023/12/17 03:09:49;;;;;;;5.27;3.43;;;;;;;3.93;77.87;97552.69;5071353;28;20752;-87
2023/12/17 03:12:15;;;;;;;4.60;3.37;;;;;;;3.88;78.00;97567.41;5072167;28;20240;-86
2023/12/17 03:14:43;;;;;;;3.33;3.03;;;;;;;3.82;78.69;97573.69;5072885;28;20204;-86
2023/12/17 03:17:09;;;;;;;3.47;3.13;;;;;;;3.76;78.81;97579.13;5082763;28;20199;-86
2023/12/17 03:19:36;;;;;;;4.13;3.50;;;;;;;3.80;79.03;97586.50;5082684;28;20263;-86
2023/12/17 03:22:03;;;;;;;3.03;2.80;;;;;;;3.84;79.13;97586.34;5072708;28;20205;-85
2023/12/17 03:24:29;;;;;;;3.33;3.03;;;;;;;3.83;78.93;97575.31;5073854;28;20196;-86
2023/12/17 03:26:55;;;;;;;3.57;3.27;;;;;;;3.83;78.85;97577.06;5092204;28;20216;-85
2023/12/17 03:29:22;;;;;;;4.23;3.10;;;;;;;3.76;79.10;97567.19;5090762;28;20733;-86
2023/12/17 03:31:50;;;;;;;3.10;2.80;;;;;;;3.73;79.05;97579.28;5089516;28;20200;-86
2023/12/17 03:34:16;;;;;;;3.57;3.27;;;;;;;3.51;80.12;97597.47;5091554;28;20214;-86
2023/12/17 03:36:42;;;;;;;3.80;2.90;;;;;;;3.56;80.40;97618.41;5091475;28;20192;-85
2023/12/17 03:39:09;;;;;;;3.10;2.80;;;;;;;3.62;80.64;97630.00;5090732;28;20220;-86
2023/12/17 03:41:35;;;;;;;3.90;3.07;;;;;;;3.72;80.46;97621.75;5091538;28;20196;-85
2023/12/17 03:44:02;;;;;;;2.97;2.70;;;;;;;3.79;79.32;97605.25;5091768;28;20204;-86
2023/12/17 03:46:28;;;;;;;3.37;3.00;;;;;;;3.80;78.95;97583.13;5091146;28;20250;-86
2023/12/17 03:48:56;;;;;;;4.47;3.00;;;;;;;3.73;79.27;97577.56;5089596;28;20224;-85
2023/12/17 03:51:24;;;;;;;3.27;2.97;;;;;;;3.75;79.19;97593.56;5091382;28;20727;-86
2023/12/17 03:53:50;;;;;;;3.60;3.20;;;;;;;3.81;79.07;97595.78;5090714;28;20865;-87
2023/12/17 03:56:17;;;;;;;4.20;2.93;;;;;;;3.83;79.09;97589.78;5091131;28;20199;-86
2023/12/17 03:58:44;;;;;;;3.13;2.83;;;;;;;3.83;78.80;97585.53;5082418;28;20216;-87
2023/12/17 04:01:10;;;;;;;3.60;3.30;;;;;;;3.79;78.56;97573.84;5091392;28;20669;-85
2023/12/17 04:03:37;;;;;;;3.20;2.90;;;;;;;3.73;78.78;97577.56;5089764;28;20207;-86
2023/12/17 04:06:07;;;;;;;3.47;3.00;;;;;;;3.72;78.63;97581.00;5090832;28;20224;-86
2023/12/17 04:08:34;;;;;;;3.10;2.80;;;;;;;3.71;78.94;97587.00;5090006;28;20204;-86
2023/12/17 04:11:00;;;;;;;3.17;2.87;;;;;;;3.66;78.87;97566.06;5091085;28;20196;-85
2023/12/17 04:13:27;;;;;;;3.10;2.80;;;;;;;3.65;78.81;97566.16;5090648;28;20200;-86
2023/12/17 04:15:53;;;;;;;3.30;3.00;;;;;;;3.68;78.88;97560.88;5090471;28;20204;-86
2023/12/17 04:18:20;;;;;;;3.97;3.27;;;;;;;3.69;78.40;97542.97;5079251;28;20242;-85
2023/12/17 04:20:47;;;;;;;3.00;2.80;;;;;;;3.71;78.12;97525.88;5087540;28;20235;-87
2023/12/17 04:23:15;;;;;;;3.67;3.00;;;;;;;3.73;77.88;97524.06;5090719;28;20222;-86
2023/12/17 04:25:41;;;;;;;3.23;2.93;;;;;;;3.78;77.95;97516.16;5089705;28;20198;-85
2023/12/17 04:28:08;;;;;;;2.63;2.43;;;;;;;3.83;77.33;97500.63;5090743;28;20286;-85
2023/12/17 04:30:34;;;;;;;2.70;2.50;;;;;;;3.81;76.78;97463.31;5089408;28;20210;-86
2023/12/17 04:33:01;;;;;;;2.77;2.50;;;;;;;3.80;76.51;97443.81;5091280;28;20203;-86
2023/12/17 04:35:27;;;;;;;2.40;2.20;;;;;;;3.78;76.36;97421.91;5088726;28;20206;-86
2023/12/17 04:37:54;;;;;;;2.50;2.30;;;;;;;3.79;76.07;97409.06;5090171;28;20199;-86
2023/12/17 04:40:22;;;;;;;3.97;2.27;;;;;;;3.78;75.87;97407.44;5090135;28;20280;-85
2023/12/17 04:42:48;;;;;;;2.90;2.20;;;;;;;3.72;75.84;97394.22;5089980;28;20211;-86
2023/12/17 04:45:15;;;;;;;2.63;2.30;;;;;;;3.71;75.70;97400.22;5089705;28;20282;-85
2023/12/17 04:47:41;;;;;;;2.10;1.90;;;;;;;3.67;75.76;97394.47;5089852;28;20231;-86
2023/12/17 04:50:08;;;;;;;2.50;1.93;;;;;;;3.69;76.01;97391.84;5089397;28;20246;-87
2023/12/17 04:52:35;;;;;;;2.17;1.97;;;;;;;3.65;75.74;97368.31;5086344;28;20200;-85
2023/12/17 04:55:02;;;;;;;2.07;1.73;;;;;;;3.68;75.75;97367.28;5086299;28;20203;-85
2023/12/17 04:57:30;;;;;;;2.20;1.90;;;;;;;3.72;75.75;97392.50;5089947;28;20294;-86
2023/12/17 05:00:00;;;;;;;2.40;1.90;;;;;;;3.78;75.65;97391.31;5089408;28;20304;-85
2023/12/17 05:02:27;;;;;;;2.77;2.30;;;;;;;3.73;75.63;97388.22;5089906;28;20207;-86
2023/12/17 05:04:53;;;;;;;2.10;1.90;;;;;;;3.76;75.91;97405.88;5089747;28;20752;-86
2023/12/17 05:07:20;;;;;;;3.27;2.10;;;;;;;3.81;75.69;97398.78;5089964;28;20223;-85
2023/12/17 05:09:46;;;;;;;2.20;2.00;;;;;;;3.83;75.46;97393.59;5087772;28;20936;-86
2023/12/17 05:12:12;;;;;;;1.80;1.70;;;;;;;3.84;75.46;97393.53;5089905;28;20210;-85
2023/12/17 05:14:40;;;;;;;2.13;1.90;;;;;;;3.88;75.21;97383.94;5089715;28;20197;-85
2023/12/17 05:17:07;;;;;;;1.83;1.73;;;;;;;3.88;75.34;97371.19;5090120;28;20196;-85
2023/12/17 05:19:33;;;;;;;2.33;2.00;;;;;;;3.83;75.19;97375.78;5089135;28;20228;-86
2023/12/17 05:22:00;;;;;;;2.20;1.77;;;;;;;3.85;75.15;97372.19;5089889;28;20815;-87
2023/12/17 05:24:26;;;;;;;2.30;2.10;;;;;;;3.80;75.13;97361.47;5087519;28;20226;-86
2023/12/17 05:26:52;;;;;;;2.10;1.90;;;;;;;3.75;75.03;97364.28;5089277;28;20220;-85
2023/12/17 05:29:19;;;;;;;2.20;2.00;;;;;;;3.68;74.56;97355.38;5088536;28;20242;-86
2023/12/17 05:31:51;;;;;;;2.30;2.00;;;;;;;3.69;74.88;97357.00;5089947;28;20602;-85
2023/12/17 05:34:17;;;;;;;1.87;1.57;;;;;;;3.70;74.82;97363.75;5093341;28;20206;-85
2023/12/17 05:36:44;;;;;;;2.40;2.00;;;;;;;3.77;74.97;97375.22;5092868;28;20696;-86
2023/12/17 05:39:10;;;;;;;2.20;1.87;;;;;;;3.79;74.88;97393.78;5092905;28;20815;-86
2023/12/17 05:41:37;;;;;;;2.30;1.87;;;;;;;3.80;74.81;97377.59;5091419;28;20207;-85
2023/12/17 05:44:03;;;;;;;2.33;2.00;;;;;;;3.82;74.76;97377.50;5093201;28;20212;-86
2023/12/17 05:46:30;;;;;;;2.90;2.10;;;;;;;3.74;74.24;97365.19;5092756;28;20222;-86
2023/12/17 05:48:57;;;;;;;2.47;1.80;;;;;;;3.71;74.43;97362.00;5090921;28;20223;-85
2023/12/17 05:51:24;;;;;;;2.60;1.70;;;;;;;3.67;74.41;97358.81;5084645;28;20594;-86
2023/12/17 05:53:50;;;;;;;2.03;1.83;;;;;;;3.69;74.66;97351.91;5093110;28;20208;-87
2023/12/17 05:56:17;;;;;;;3.47;2.17;;;;;;;3.60;74.91;97362.66;5091136;28;20200;-87
2023/12/17 05:58:44;;;;;;;2.53;2.33;;;;;;;3.61;75.32;97378.75;5092126;28;20239;-86
2023/12/17 06:01:11;;;;;;;2.40;2.20;;;;;;;3.55;74.98;97376.56;5092540;28;20262;-86
2023/12/17 06:03:39;;;;;;;2.77;2.17;;;;;;;3.56;75.41;97379.00;5092238;28;20204;-86
2023/12/17 06:06:08;;;;;;;1.73;1.63;;;;;;;3.57;74.95;97373.00;5092065;28;20208;-86
2023/12/17 06:08:34;;;;;;;2.17;1.80;;;;;;;3.57;74.96;97362.00;5081872;28;20621;-86
2023/12/17 06:11:00;;;;;;;1.90;1.80;;;;;;;3.58;75.05;97361.09;5072029;28;20667;-86
2023/12/17 06:13:27;;;;;;;1.97;1.77;;;;;;;3.58;75.01;97366.19;5082766;28;20803;-86
2023/12/17 06:15:54;;;;;;;2.03;1.83;;;;;;;3.60;74.85;97366.94;5084648;28;20197;-84
2023/12/17 06:18:20;;;;;;;2.20;1.60;;;;;;;3.58;74.63;97368.75;5074661;28;20272;-86
2023/12/17 06:20:46;;;;;;;2.23;1.97;;;;;;;3.55;75.09;97371.47;5072623;28;20208;-86
2023/12/17 06:23:14;;;;;;;2.03;1.63;;;;;;;3.56;75.50;97376.47;5071617;28;20208;-86
2023/12/17 06:25:41;;;;;;;2.17;1.90;;;;;;;3.58;75.00;97379.75;5072061;28;20208;-86
2023/12/17 06:28:07;;;;;;;2.30;1.60;;;;;;;3.55;74.82;97366.38;5088164;28;20590;-88
2023/12/17 06:30:36;;;;;;;2.00;1.80;;;;;;;3.52;74.83;97380.09;5089593;28;20294;-88
2023/12/17 06:33:03;;;;;;;1.50;1.40;;;;;;;3.54;74.86;97373.19;5091378;28;20295;-85
2023/12/17 06:35:29;;;;;;;2.03;1.60;;;;;;;3.59;74.77;97371.19;5091956;28;20736;-85
2023/12/17 06:37:57;;;;;;;2.00;1.80;;;;;;;3.59;74.84;97375.47;5091499;28;20208;-86
2023/12/17 06:40:25;;;;;;;3.23;2.00;;;;;;;3.60;74.85;97380.47;5091351;28;20224;-85
2023/12/17 06:42:51;;;;;;;5.23;1.70;;;;;;;3.62;74.90;97388.03;5072136;28;20201;-85
2023/12/17 06:45:18;;;;;;;5.03;2.80;;;;;;;3.61;74.76;97387.22;5079095;28;20200;-86
2023/12/17 06:47:45;;;;;;;3.77;1.90;;;;;;;3.57;75.19;97390.03;5071434;28;20227;-85
2023/12/17 06:50:12;;;;;;;2.10;1.90;;;;;;;3.57;75.18;97401.03;5083835;28;20220;-86
2023/12/17 06:52:43;;;;;;;2.40;2.10;;;;;;;3.47;75.15;97394.81;5073796;28;20197;-86
2023/12/17 06:55:12;;;;;;;2.47;2.00;;;;;;;3.35;75.49;97403.97;5079085;28;20201;-87
2023/12/17 06:57:46;;;;;;;2.57;2.00;;;;;;;3.35;75.94;97418.44;5070758;28;20201;-86
2023/12/17 07:00:14;;;;;;;2.00;1.80;;;;;;;3.36;75.73;97420.91;5078529;28;20246;-87
2023/12/17 07:02:41;;;;;;;1.70;1.60;;;;;;;3.33;75.78;97410.06;5087130;28;20226;-87
2023/12/17 07:05:12;;;;;;;2.07;1.87;;;;;;;3.21;76.14;97429.41;5076697;28;20214;-86
2023/12/17 07:07:38;;;;;;;2.97;1.80;;;;;;;3.20;76.46;97435.41;5077263;28;20201;-86
2023/12/17 07:10:07;;;;;;;3.50;1.70;;;;;;;3.14;79.74;97537.53;5079402;28;20221;-86
2023/12/17 07:12:33;;;;;;;2.07;1.87;;;;;;;3.09;78.02;97486.88;5080622;28;20193;-86
2023/12/17 07:15:01;;;;;;;2.17;1.90;;;;;;;3.20;78.32;97495.66;5079387;28;20565;-85
2023/12/17 07:17:27;;;;;;;3.20;2.80;;;;;;;3.39;83.66;97654.97;5083961;28;20574;-86
2023/12/17 07:19:54;;;;;;;3.17;2.60;;;;;;;3.51;80.39;97564.34;5090670;28;21015;-86
2023/12/17 07:22:22;;;;;;;3.97;2.60;;;;;;;3.60;79.43;97546.03;5091162;28;20200;-85
2023/12/17 07:24:48;;;;;;;3.43;2.47;;;;;;;3.64;78.76;97528.84;5091370;28;20618;-86
2023/12/17 07:27:15;;;;;;;4.47;3.20;;;;;;;3.57;77.06;97467.25;5092301;28;20232;-86
2023/12/17 07:29:42;;;;;;;3.53;2.67;;;;;;;3.59;76.86;97449.34;5085980;28;20227;-88
2023/12/17 07:32:10;;;;;;;3.47;3.17;;;;;;;3.55;76.74;97441.03;5081730;28;20204;-85
2023/12/17 07:34:46;;;;;;;3.47;3.17;;;;;;;3.55;76.87;97441.03;5082455;28;20193;-87
2023/12/17 07:37:12;;;;;;;3.60;3.20;;;;;;;3.57;76.46;97435.88;5079303;28;20184;-86
2023/12/17 07:39:39;;;;;;;3.60;3.30;;;;;;;3.64;76.47;97443.06;5078446;28;20632;-86
2023/12/17 07:42:05;;;;;;;3.37;3.07;;;;;;;3.69;76.52;97432.59;5085820;28;20590;-86
2023/12/17 07:44:32;;;;;;;3.57;3.27;;;;;;;3.71;76.32;97428.25;5076174;28;20203;-85
2023/12/17 07:47:05;;;;;;;3.53;3.23;;;;;;;3.73;76.35;97437.44;5076437;28;20207;-87
2023/12/17 07:49:33;;;;;;;3.47;3.17;;;;;;;3.83;76.02;97416.53;5073587;28;20633;-86
2023/12/17 07:52:00;;;;;;;3.37;2.80;;;;;;;3.88;75.56;97405.13;5089048;28;20215;-86
2023/12/17 07:54:28;;;;;;;3.30;2.83;;;;;;;4.01;75.46;97410.34;5097159;28;20667;-89
2023/12/17 07:56:54;;;;;;;3.30;2.90;;;;;;;4.12;75.13;97395.22;5105295;28;20208;-88
2023/12/17 07:59:31;;;;;;;3.37;2.50;;;;;;;4.22;74.54;97392.97;5087662;28;20311;-90
2023/12/17 08:01:57;;;;;;;2.80;2.40;;;;;;;4.31;74.27;97366.88;5069089;28;20270;-86
2023/12/17 08:04:24;;;;;;;2.40;2.20;;;;;;;4.47;73.90;97357.38;5089682;28;20211;-89
2023/12/17 08:06:51;;;;;;;2.60;2.17;;;;;;;4.60;73.21;97330.22;5069214;28;20189;-88
2023/12/17 08:09:18;;;;;;;3.07;2.50;;;;;;;4.81;72.47;97315.28;5083872;28;20220;-88
2023/12/17 08:11:56;;;;;;;1.93;1.67;;;;;;;5.07;71.36;97301.63;5088898;28;20707;-88
2023/12/17 08:14:23;;;;;;;2.20;2.00;;;;;;;5.30;70.79;97258.44;5083971;28;20196;-86
2023/12/17 08:16:49;;;;;;;2.20;2.00;;;;;;;5.47;69.65;97224.91;5074577;28;20208;-87
2023/12/17 08:19:16;;;;;;;1.80;1.67;;;;;;;5.59;68.59;97177.25;5077639;28;20298;-87
2023/12/17 08:21:43;;;;;;;3.47;2.27;;;;;;;5.69;67.95;97139.94;5069097;28;20211;-86
2023/12/17 08:24:21;;;;;;;2.53;2.33;;;;;;;5.78;67.47;97118.81;5077580;28;20189;-87
2023/12/17 08:26:48;;;;;;;2.47;2.07;;;;;;;5.97;67.13;97085.94;5077265;28;20189;-88
2023/12/17 08:29:14;;;;;;;2.23;2.03;;;;;;;6.09;66.33;97059.50;5078178;28;20227;-87
2023/12/17 08:31:44;;;;;;;3.47;2.27;;;;;;;6.30;65.73;97033.25;5077844;28;20203;-87
2023/12/17 08:34:10;;;;;;;3.53;2.60;;;;;;;6.53;70.31;97188.44;5084166;28;20196;-84
2023/12/17 08:36:37;;;;;;;4.73;3.33;;;;;;;7.20;95.90;97823.88;5083182;28;20200;-83
2023/12/17 08:39:05;;;;;;;5.27;3.90;;;;;;;7.75;89.34;97746.66;5081582;28;20213;-84
2023/12/17 08:41:33;;;;;;;3.97;2.60;;;;;;;8.24;85.65;97705.59;5086281;28;20234;-86
2023/12/17 08:44:00;;;;;;;3.90;3.60;;;;;;;8.21;65.96;97012.16;5089580;28;20206;-86
2023/12/17 08:46:32;;;;;;;3.63;3.23;;;;;;;8.08;64.11;96875.59;5089274;28;20233;-88
2023/12/17 08:49:06;;;;;;;2.90;2.70;;;;;;;7.89;62.91;96830.97;5083211;28;20248;-87
2023/12/17 08:51:32;;;;;;;5.73;3.00;;;;;;;7.91;63.21;96844.47;5089766;28;20325;-87
2023/12/17 08:54:00;;;;;;;3.53;2.77;;;;;;;7.93;63.02;96834.91;5089224;28;20192;-86
2023/12/17 08:56:26;;;;;;;3.77;3.07;;;;;;;7.99;63.05;96823.31;5089349;28;20208;-87
2023/12/17 08:58:54;;;;;;;3.23;2.80;;;;;;;7.88;61.86;96761.88;5089249;28;20243;-86
2023/12/17 09:01:21;;;;;;;3.50;2.93;;;;;;;7.66;61.53;96739.81;5090605;28;20210;-86
2023/12/17 09:03:49;;;;;;;3.90;3.17;;;;;;;7.63;61.84;96770.84;5090126;28;20204;-86
2023/12/17 09:06:16;;;;;;;5.03;2.70;;;;;;;7.57;62.08;96772.16;5087281;28;20204;-88
2023/12/17 09:08:42;;;;;;;3.33;2.73;;;;;;;7.52;62.25;96784.53;5089453;28;20296;-86
2023/12/17 09:11:08;;;;;;;3.30;2.87;;;;;;;7.53;61.21;96731.53;5089312;28;20661;-86
2023/12/17 09:13:35;;;;;;;3.93;2.87;;;;;;;7.51;60.91;96713.72;5076814;28;20204;-85
2023/12/17 09:16:03;;;;;;;3.03;2.73;;;;;;;7.57;60.93;96708.06;5070755;28;20228;-86
2023/12/17 09:18:33;;;;;;;3.60;2.93;;;;;;;7.62;61.06;96723.06;5069146;28;20658;-87
2023/12/17 09:21:00;;;;;;;3.63;2.80;;;;;;;7.71;60.97;96724.03;5072896;28;20224;-86
2023/12/17 09:23:26;;;;;;;3.60;2.90;;;;;;;7.86;60.77;96717.63;5089415;28;20206;-86
2023/12/17 09:25:53;;;;;;;2.93;2.70;;;;;;;8.01;60.48;96711.16;5088324;28;20212;-86
2023/12/17 09:28:19;;;;;;;3.47;3.10;;;;;;;8.16;60.73;96727.78;5088838;28;20608;-85
2023/12/17 09:30:46;;;;;;;4.43;3.17;;;;;;;8.39;60.50;96732.69;5088994;28;20188;-86
2023/12/17 09:33:14;;;;;;;7.47;5.40;;;;;;;8.22;59.27;96664.88;5090043;28;20200;-86
2023/12/17 09:35:40;;;;;;;4.20;3.60;;;;;;;8.12;59.34;96641.75;5081695;28;20242;-86
2023/12/17 09:38:07;;;;;;;5.80;3.93;;;;;;;8.09;60.08;96695.91;5086052;28;20196;-87
2023/12/17 09:40:33;;;;;;;8.73;5.90;;;;;;;8.11;60.40;96711.16;5086996;28;20220;-88
2023/12/17 09:43:01;;;;;;;5.30;4.23;;;;;;;8.30;60.51;96734.25;5087674;28;20204;-89
2023/12/17 09:45:27;;;;;;;4.97;3.57;;;;;;;8.54;60.52;96726.19;5087930;28;20206;-88
2023/12/17 09:47:54;;;;;;;4.70;3.17;;;;;;;8.78;60.10;96721.47;5087678;28;20216;-89
2023/12/17 09:50:29;;;;;;;3.83;3.20;;;;;;;8.90;59.58;96712.66;5072982;28;20647;-86
2023/12/17 09:52:55;;;;;;;3.53;3.20;;;;;;;8.99;59.60;96713.59;5068623;28;20227;-85
2023/12/17 09:55:22;;;;;;;3.70;3.20;;;;;;;9.10;58.71;96674.06;5087600;28;20196;-82
2023/12/17 09:57:49;;;;;;;3.20;2.83;;;;;;;9.23;58.83;96665.13;5070936;28;20208;-84
2023/12/17 10:00:16;;;;;;;4.07;2.80;;;;;;;9.35;58.18;96633.13;5071048;28;20740;-85
2023/12/17 10:02:52;;;;;;;;;;;;;;;;;;;;;
2023/12/17 10:05:23;;;;;;;3.83;2.57;;;;;;;9.36;57.24;96556.84;5066905;28;20201;-86
2023/12/17 10:07:50;;;;;;;3.83;2.67;;;;;;;9.39;58.07;96633.66;5070919;28;20221;-87
2023/12/17 10:10:17;;;;;;;3.90;2.70;;;;;;;9.49;58.87;96692.72;5083089;28;20227;-88
2023/12/17 10:12:44;;;;;;;4.27;2.93;;;;;;;9.61;59.33;96728.41;5088756;28;20239;-87
2023/12/17 10:15:18;;;;;;;2.70;2.50;;;;;;;9.70;58.37;96683.00;5087766;28;20204;-86
2023/12/17 10:17:45;;;;;;;3.43;2.80;;;;;;;9.78;58.39;96690.00;5090258;28;20191;-87
2023/12/17 10:20:17;;;;;;;2.47;2.27;;;;;;;9.72;57.85;96641.72;5092300;28;20251;-87
2023/12/17 10:22:56;;;;;;;3.30;2.00;;;;;;;9.73;57.31;96607.34;5091479;28;20256;-84
2023/12/17 10:25:23;;;;;;;14.60;12.13;;;;;;;9.77;56.90;96564.94;5092965;28;22634;-86
2023/12/17 10:27:50;;;;;;;6.57;4.93;;;;;;;9.66;58.15;96632.81;5093952;28;20256;-85
2023/12/17 10:30:17;;;;;;;5.43;2.53;;;;;;;9.70;58.08;96636.72;5090915;28;20312;-85
2023/12/17 10:32:44;;;;;;;2.60;2.20;;;;;;;9.71;57.16;96581.75;5087291;28;20207;-86
2023/12/17 10:35:12;;;;;;;2.27;2.07;;;;;;;9.75;56.95;96574.56;5092615;28;20669;-86
2023/12/17 10:37:39;;;;;;;2.83;2.50;;;;;;;9.77;56.02;96522.03;5088415;28;20192;-85
2023/12/17 10:40:11;;;;;;;2.83;2.27;;;;;;;9.79;56.74;96539.88;5086288;28;20229;-85
2023/12/17 10:42:40;;;;;;;2.30;2.10;;;;;;;9.77;55.76;96485.22;5084056;28;20260;-85
2023/12/17 10:45:10;;;;;;;2.97;2.30;;;;;;;9.85;55.90;96482.69;5092696;28;20209;-87
2023/12/17 10:47:38;;;;;;;15.40;12.23;;;;;;;9.83;55.76;96487.16;5093467;28;20192;-87
2023/12/17 10:50:06;;;;;;;11.73;9.77;;;;;;;9.79;56.06;96498.75;5090289;28;20421;-85
2023/12/17 10:52:34;;;;;;;4.50;4.10;;;;;;;9.90;56.53;96540.47;5081031;28;20414;-85
2023/12/17 10:55:00;;;;;;;2.90;2.60;;;;;;;9.97;55.66;96494.38;5093207;28;20200;-85
2023/12/17 10:57:30;;;;;;;3.40;2.80;;;;;;;10.03;55.42;96486.03;5090405;28;20199;-85
2023/12/17 10:59:59;;;;;;;2.30;2.10;;;;;;;10.13;55.29;96475.66;5072588;28;20224;-85
2023/12/17 11:02:27;;;;;;;2.80;2.43;;;;;;;10.23;55.53;96479.75;5080284;28;20196;-86
2023/12/17 11:04:56;;;;;;;2.70;2.10;;;;;;;10.33;55.04;96456.50;5076056;28;20200;-86
2023/12/17 11:07:23;;;;;;;2.30;2.10;;;;;;;10.39;55.09;96440.44;5084277;28;20585;-85
2023/12/17 11:09:50;;;;;;;3.37;2.23;;;;;;;10.46;55.77;96516.09;5072684;28;20231;-87
2023/12/17 11:12:17;;;;;;;3.23;2.30;;;;;;;10.53;54.87;96449.34;5072413;28;20205;-87
2023/12/17 11:14:46;;;;;;;2.17;1.97;;;;;;;10.63;53.75;96395.94;5081414;28;20196;-86
2023/12/17 11:17:14;;;;;;;2.07;1.87;;;;;;;10.66;53.79;96370.69;5078724;28;20662;-86
2023/12/17 11:19:54;;;;;;;2.07;1.87;;;;;;;10.60;53.33;96353.28;5090743;28;20254;-86
2023/12/17 11:22:21;;;;;;;2.77;2.20;;;;;;;10.61;54.10;96431.34;5092122;28;20207;-87
2023/12/17 11:24:50;;;;;;;2.83;2.03;;;;;;;10.57;53.24;96387.09;5091416;28;20200;-86
2023/12/17 11:27:19;;;;;;;3.27;2.00;;;;;;;10.42;53.21;96360.31;5083507;28;20211;-86
2023/12/17 11:29:47;;;;;;;1.80;1.70;;;;;;;10.43;53.63;96397.16;5088771;28;20604;-86
2023/12/17 11:32:15;;;;;;;4.03;2.30;;;;;;;10.49;53.85;96412.00;5084950;28;20197;-87
2023/12/17 11:34:42;;;;;;;2.40;2.20;;;;;;;10.53;53.71;96403.81;5070672;28;20296;-86
2023/12/17 11:37:09;;;;;;;2.10;1.90;;;;;;;10.61;53.42;96397.88;5078422;28;20203;-86
2023/12/17 11:39:36;;;;;;;7.23;4.67;;;;;;;10.67;53.80;96421.22;5086879;28;20251;-86
2023/12/17 11:42:04;;;;;;;8.67;7.73;;;;;;;10.64;52.56;96348.63;5081291;28;20568;-86
2023/12/17 11:44:31;;;;;;;3.70;3.40;;;;;;;10.74;53.24;96411.13;5099063;28;20841;-85
2023/12/17 11:46:59;;;;;;;2.40;2.03;;;;;;;10.79;53.08;96397.75;5097534;28;20223;-86